首页
METAR-TAF:

METAR-TAF

机场 :

汉诺威-朗根哈根机场

汉诺威, 德国

纬度: 52-28N, 经度: 009-41E, 海拔: 56米

当前天气观测

该预报发布于24分钟前的00:50 UTC
风速5节,风向东北,在北转东北之间变化
温度 5°C
湿度 100%
气压 1004 hPa
能見度: 3100
多云层高于300英尺
轻雾

METAR: EDDV 180050Z 05005KT 020V080 3100 BR BKN003 05/05 Q1004

时间: 02:14 (01:14 UTC)

预报

该预报发布于2小时和14分钟前的23:00 UTC
预报有效从18日的 00点(UTC)到 18日的 24点(UTC)
风速6节,风向北转东北
能見度: 7000
多云层高于600英尺
成为
从 18日的 00点(UTC)到 18日的 02点(UTC)
风速3节,风向多变
能見度: 4000
轻雾
短暂存在
从 18日的 00点(UTC)到 18日的 11点(UTC)
能見度: 2000
多云层高于300英尺
小毛毛雨
几率 30% :
短暂存在
从 18日的 02点(UTC)到 18日的 09点(UTC)
能見度: 0600
阴天层高于100英尺
成为
从 18日的 10点(UTC)到 18日的 12点(UTC)
风速6节,风向南转西南
成为
从 18日的 12点(UTC)到 18日的 15点(UTC)
能见度10公里或以上
多云层高于2000英尺
成为
从 18日的 19点(UTC)到 18日的 22点(UTC)
风速12节,风向
成为
从 18日的 22点(UTC)到 18日的 24点(UTC)
风速15节,风向南转西南,有时为25节阵风
短暂存在
从 18日的 22点(UTC)到 18日的 24点(UTC)
多云层高于1200英尺

TAF: EDDV 172300Z 1800/1824 03006KT 7000 BKN006 BECMG 1800/1802 VRB03KT 4000 BR TEMPO 1800/1811 2000 -DZ BKN003 PROB30 TEMPO 1802/1809 0600 FG OVC001 BECMG 1810/1812 20006KT BECMG 1812/1815 9999 BKN020 BECMG 1819/1822 19012KT BECMG 1822/1824 20015G25KT TEMPO 1822/1824 BKN012

超过4000个机场的气象观测和天气预报(METAR&TAF报告)。

可查询的气象台以黄色和红色小点在地图上表示。

将鼠标移到小点上方,可查看气象台名称。

然后点击查看天气观测和预报。

如需切换地图:点击带黑十字的绿色按钮放大地图;点击带横线的绿色按钮缩小地图;或者点击绿色箭头查看邻近地区的地图。


METAR-TAF: